Terminal Aerodrome Forecast
Issued by NWS Shreveport, LA

Home | Current Version | Previous Version | Text Only | Print | Product List | Glossary On
Versions: 1 2 3 4 5 6 7 8 9 10 11 12 13 14 15 16 17 18 19 20
705
FTUS44 KSHV 271609 AAA
TAFLFK
TAF AMD
KLFK 271609Z 2716/2812 VRB05KT 5SM -TSRA BR SCT025 OVC035CB
      TEMPO 2716/2719 VRB15G25KT 1 1/2SM +TSRA BR BKN025 OVC035CB
     FM280200 16008KT P6SM BKN015 OVC080=

USA.gov is the U.S. government's official web portal to all federal, state and local government web resources and services.